sensor_id;sensor_type;location;lat;lon;timestamp;P1;durP1;ratioP1;P2;durP2;ratioP2
79005;SDS011;69202;45.498;-73.582;2024-01-10T00:02:07;2.78;;;1.95;;
79005;SDS011;69202;45.498;-73.582;2024-01-10T00:04:33;3.55;;;2.28;;
79005;SDS011;69202;45.498;-73.582;2024-01-10T00:06:59;2.65;;;1.98;;
79005;SDS011;69202;45.498;-73.582;2024-01-10T00:09:25;3.17;;;2.40;;
79005;SDS011;69202;45.498;-73.582;2024-01-10T00:11:50;2.67;;;2.30;;
79005;SDS011;69202;45.498;-73.582;2024-01-10T00:14:16;2.80;;;2.10;;
79005;SDS011;69202;45.498;-73.582;2024-01-10T00:16:42;3.60;;;2.25;;
79005;SDS011;69202;45.498;-73.582;2024-01-10T00:19:08;3.58;;;2.13;;
79005;SDS011;69202;45.498;-73.582;2024-01-10T00:21:34;3.35;;;2.10;;
79005;SDS011;69202;45.498;-73.582;2024-01-10T00:24:01;4.43;;;2.45;;
79005;SDS011;69202;45.498;-73.582;2024-01-10T00:26:27;7.32;;;2.10;;
79005;SDS011;69202;45.498;-73.582;2024-01-10T00:28:53;4.40;;;2.05;;
79005;SDS011;69202;45.498;-73.582;2024-01-10T00:31:18;5.15;;;2.20;;
79005;SDS011;69202;45.498;-73.582;2024-01-10T00:33:44;2.58;;;2.20;;
79005;SDS011;69202;45.498;-73.582;2024-01-10T00:36:10;3.30;;;2.28;;
79005;SDS011;69202;45.498;-73.582;2024-01-10T00:38:36;5.28;;;2.15;;
79005;SDS011;69202;45.498;-73.582;2024-01-10T00:41:03;3.50;;;2.05;;
79005;SDS011;69202;45.498;-73.582;2024-01-10T00:43:29;3.40;;;2.03;;
79005;SDS011;69202;45.498;-73.582;2024-01-10T00:45:55;5.15;;;2.05;;
79005;SDS011;69202;45.498;-73.582;2024-01-10T00:48:21;3.80;;;1.88;;
79005;SDS011;69202;45.498;-73.582;2024-01-10T00:50:47;4.53;;;2.05;;
79005;SDS011;69202;45.498;-73.582;2024-01-10T00:53:13;3.75;;;1.83;;
79005;SDS011;69202;45.498;-73.582;2024-01-10T00:55:39;3.05;;;2.00;;
79005;SDS011;69202;45.498;-73.582;2024-01-10T00:58:06;2.90;;;1.83;;
79005;SDS011;69202;45.498;-73.582;2024-01-10T01:00:32;2.80;;;2.08;;
79005;SDS011;69202;45.498;-73.582;2024-01-10T01:02:58;2.17;;;1.60;;
79005;SDS011;69202;45.498;-73.582;2024-01-10T01:05:24;2.72;;;1.83;;
79005;SDS011;69202;45.498;-73.582;2024-01-10T01:07:50;2.45;;;1.88;;
79005;SDS011;69202;45.498;-73.582;2024-01-10T01:10:16;3.63;;;2.00;;
79005;SDS011;69202;45.498;-73.582;2024-01-10T01:12:42;2.03;;;1.70;;
79005;SDS011;69202;45.498;-73.582;2024-01-10T01:15:08;3.80;;;2.00;;
79005;SDS011;69202;45.498;-73.582;2024-01-10T01:17:34;2.25;;;1.75;;
79005;SDS011;69202;45.498;-73.582;2024-01-10T01:20:00;2.00;;;1.67;;
79005;SDS011;69202;45.498;-73.582;2024-01-10T01:22:29;1.98;;;1.63;;
79005;SDS011;69202;45.498;-73.582;2024-01-10T01:24:56;2.67;;;1.77;;
79005;SDS011;69202;45.498;-73.582;2024-01-10T01:27:22;3.00;;;1.60;;
79005;SDS011;69202;45.498;-73.582;2024-01-10T01:29:48;4.72;;;1.77;;
79005;SDS011;69202;45.498;-73.582;2024-01-10T01:32:14;2.03;;;1.75;;
79005;SDS011;69202;45.498;-73.582;2024-01-10T01:34:40;2.10;;;1.60;;
79005;SDS011;69202;45.498;-73.582;2024-01-10T01:37:06;2.03;;;1.58;;
79005;SDS011;69202;45.498;-73.582;2024-01-10T01:39:33;1.65;;;1.55;;
79005;SDS011;69202;45.498;-73.582;2024-01-10T01:42:00;2.72;;;1.70;;
79005;SDS011;69202;45.498;-73.582;2024-01-10T01:44:26;2.30;;;1.60;;
79005;SDS011;69202;45.498;-73.582;2024-01-10T01:46:51;2.08;;;1.67;;
79005;SDS011;69202;45.498;-73.582;2024-01-10T01:49:17;2.25;;;1.80;;
79005;SDS011;69202;45.498;-73.582;2024-01-10T01:51:43;2.58;;;1.80;;
79005;SDS011;69202;45.498;-73.582;2024-01-10T01:54:09;3.22;;;1.58;;
79005;SDS011;69202;45.498;-73.582;2024-01-10T01:56:36;1.83;;;1.30;;
79005;SDS011;69202;45.498;-73.582;2024-01-10T01:59:04;1.75;;;1.45;;
79005;SDS011;69202;45.498;-73.582;2024-01-10T02:01:30;2.58;;;1.90;;
79005;SDS011;69202;45.498;-73.582;2024-01-10T02:03:56;2.70;;;1.90;;
79005;SDS011;69202;45.498;-73.582;2024-01-10T02:06:22;3.03;;;1.58;;
79005;SDS011;69202;45.498;-73.582;2024-01-10T02:08:48;2.33;;;1.67;;
79005;SDS011;69202;45.498;-73.582;2024-01-10T02:11:14;3.70;;;1.70;;
79005;SDS011;69202;45.498;-73.582;2024-01-10T02:13:41;2.60;;;1.63;;
79005;SDS011;69202;45.498;-73.582;2024-01-10T02:16:07;1.80;;;1.40;;
79005;SDS011;69202;45.498;-73.582;2024-01-10T02:18:34;1.60;;;1.50;;
79005;SDS011;69202;45.498;-73.582;2024-01-10T02:21:02;2.03;;;1.77;;
79005;SDS011;69202;45.498;-73.582;2024-01-10T02:23:28;2.25;;;1.50;;
79005;SDS011;69202;45.498;-73.582;2024-01-10T02:25:54;1.73;;;1.52;;
79005;SDS011;69202;45.498;-73.582;2024-01-10T02:28:20;3.28;;;1.52;;
79005;SDS011;69202;45.498;-73.582;2024-01-10T02:30:48;2.75;;;1.40;;
79005;SDS011;69202;45.498;-73.582;2024-01-10T02:33:16;1.95;;;1.70;;
79005;SDS011;69202;45.498;-73.582;2024-01-10T02:35:48;2.28;;;1.50;;
79005;SDS011;69202;45.498;-73.582;2024-01-10T02:38:14;2.08;;;1.85;;
79005;SDS011;69202;45.498;-73.582;2024-01-10T02:40:40;1.73;;;1.33;;
79005;SDS011;69202;45.498;-73.582;2024-01-10T02:43:07;2.03;;;1.80;;
79005;SDS011;69202;45.498;-73.582;2024-01-10T02:45:33;2.30;;;1.88;;
79005;SDS011;69202;45.498;-73.582;2024-01-10T02:48:00;1.92;;;1.55;;
79005;SDS011;69202;45.498;-73.582;2024-01-10T02:50:26;1.60;;;1.30;;
79005;SDS011;69202;45.498;-73.582;2024-01-10T02:52:52;1.67;;;1.40;;
79005;SDS011;69202;45.498;-73.582;2024-01-10T02:55:19;1.65;;;1.50;;
79005;SDS011;69202;45.498;-73.582;2024-01-10T02:57:45;3.40;;;1.40;;
79005;SDS011;69202;45.498;-73.582;2024-01-10T03:00:11;3.33;;;1.35;;
79005;SDS011;69202;45.498;-73.582;2024-01-10T03:02:38;3.78;;;1.50;;
79005;SDS011;69202;45.498;-73.582;2024-01-10T03:05:06;44.15;;;6.22;;
79005;SDS011;69202;45.498;-73.582;2024-01-10T03:07:32;52.80;;;7.78;;
79005;SDS011;69202;45.498;-73.582;2024-01-10T03:09:59;74.25;;;10.30;;
79005;SDS011;69202;45.498;-73.582;2024-01-10T03:12:25;59.03;;;8.43;;
79005;SDS011;69202;45.498;-73.582;2024-01-10T03:14:51;47.33;;;7.88;;
79005;SDS011;69202;45.498;-73.582;2024-01-10T03:17:17;35.42;;;6.22;;
79005;SDS011;69202;45.498;-73.582;2024-01-10T03:19:43;41.72;;;7.30;;
79005;SDS011;69202;45.498;-73.582;2024-01-10T03:22:09;31.88;;;4.97;;
79005;SDS011;69202;45.498;-73.582;2024-01-10T03:24:36;37.63;;;5.63;;
79005;SDS011;69202;45.498;-73.582;2024-01-10T03:27:04;31.67;;;4.93;;
79005;SDS011;69202;45.498;-73.582;2024-01-10T03:29:30;29.60;;;4.72;;
79005;SDS011;69202;45.498;-73.582;2024-01-10T03:31:56;20.88;;;3.92;;
79005;SDS011;69202;45.498;-73.582;2024-01-10T03:34:22;25.83;;;5.07;;
79005;SDS011;69202;45.498;-73.582;2024-01-10T03:36:48;16.40;;;3.20;;
79005;SDS011;69202;45.498;-73.582;2024-01-10T03:39:14;15.93;;;3.45;;
79005;SDS011;69202;45.498;-73.582;2024-01-10T03:41:39;18.00;;;3.85;;
79005;SDS011;69202;45.498;-73.582;2024-01-10T03:44:05;19.13;;;4.00;;
79005;SDS011;69202;45.498;-73.582;2024-01-10T03:46:31;15.27;;;3.20;;
79005;SDS011;69202;45.498;-73.582;2024-01-10T03:48:57;20.63;;;3.30;;
79005;SDS011;69202;45.498;-73.582;2024-01-10T03:51:23;22.50;;;3.40;;
79005;SDS011;69202;45.498;-73.582;2024-01-10T03:53:49;15.50;;;3.20;;
79005;SDS011;69202;45.498;-73.582;2024-01-10T03:56:16;19.98;;;3.50;;
79005;SDS011;69202;45.498;-73.582;2024-01-10T03:58:42;19.35;;;3.97;;
79005;SDS011;69202;45.498;-73.582;2024-01-10T04:01:08;15.25;;;3.33;;
79005;SDS011;69202;45.498;-73.582;2024-01-10T04:03:34;14.00;;;3.22;;
79005;SDS011;69202;45.498;-73.582;2024-01-10T04:06:01;22.00;;;3.80;;
79005;SDS011;69202;45.498;-73.582;2024-01-10T04:08:28;26.98;;;3.17;;
79005;SDS011;69202;45.498;-73.582;2024-01-10T04:10:54;12.07;;;3.05;;
79005;SDS011;69202;45.498;-73.582;2024-01-10T04:13:20;18.17;;;3.40;;
79005;SDS011;69202;45.498;-73.582;2024-01-10T04:15:45;25.55;;;4.00;;
79005;SDS011;69202;45.498;-73.582;2024-01-10T04:18:11;17.30;;;3.90;;
79005;SDS011;69202;45.498;-73.582;2024-01-10T04:20:37;19.73;;;3.35;;
79005;SDS011;69202;45.498;-73.582;2024-01-10T04:23:03;11.95;;;3.03;;
79005;SDS011;69202;45.498;-73.582;2024-01-10T04:25:29;14.18;;;3.30;;
79005;SDS011;69202;45.498;-73.582;2024-01-10T04:27:55;19.52;;;2.83;;
79005;SDS011;69202;45.498;-73.582;2024-01-10T04:30:22;9.80;;;2.58;;
79005;SDS011;69202;45.498;-73.582;2024-01-10T04:32:48;11.85;;;2.95;;
79005;SDS011;69202;45.498;-73.582;2024-01-10T04:35:14;11.38;;;3.13;;
79005;SDS011;69202;45.498;-73.582;2024-01-10T04:37:40;7.32;;;2.10;;
79005;SDS011;69202;45.498;-73.582;2024-01-10T04:40:06;11.35;;;3.05;;
79005;SDS011;69202;45.498;-73.582;2024-01-10T04:42:32;15.85;;;2.80;;
79005;SDS011;69202;45.498;-73.582;2024-01-10T04:44:58;16.58;;;2.53;;
79005;SDS011;69202;45.498;-73.582;2024-01-10T04:47:24;9.25;;;2.40;;
79005;SDS011;69202;45.498;-73.582;2024-01-10T04:49:50;13.55;;;3.08;;
79005;SDS011;69202;45.498;-73.582;2024-01-10T04:52:16;9.27;;;2.20;;
79005;SDS011;69202;45.498;-73.582;2024-01-10T04:54:42;6.43;;;2.13;;
79005;SDS011;69202;45.498;-73.582;2024-01-10T04:57:08;10.48;;;2.08;;
79005;SDS011;69202;45.498;-73.582;2024-01-10T04:59:33;5.18;;;1.98;;
79005;SDS011;69202;45.498;-73.582;2024-01-10T05:01:59;10.10;;;2.10;;
79005;SDS011;69202;45.498;-73.582;2024-01-10T05:04:25;5.85;;;1.90;;
79005;SDS011;69202;45.498;-73.582;2024-01-10T05:06:51;10.23;;;1.95;;
79005;SDS011;69202;45.498;-73.582;2024-01-10T05:09:17;8.25;;;2.03;;
79005;SDS011;69202;45.498;-73.582;2024-01-10T05:11:43;6.10;;;2.22;;
79005;SDS011;69202;45.498;-73.582;2024-01-10T05:14:13;9.35;;;2.33;;
79005;SDS011;69202;45.498;-73.582;2024-01-10T05:16:39;10.18;;;1.90;;
79005;SDS011;69202;45.498;-73.582;2024-01-10T05:19:05;7.38;;;2.08;;
79005;SDS011;69202;45.498;-73.582;2024-01-10T05:21:31;10.35;;;2.35;;
79005;SDS011;69202;45.498;-73.582;2024-01-10T05:23:58;6.45;;;2.30;;
79005;SDS011;69202;45.498;-73.582;2024-01-10T05:26:24;7.30;;;2.08;;
79005;SDS011;69202;45.498;-73.582;2024-01-10T05:28:50;6.38;;;1.52;;
79005;SDS011;69202;45.498;-73.582;2024-01-10T05:31:17;5.47;;;1.75;;
79005;SDS011;69202;45.498;-73.582;2024-01-10T05:33:43;6.68;;;1.80;;
79005;SDS011;69202;45.498;-73.582;2024-01-10T05:36:09;4.65;;;1.70;;
79005;SDS011;69202;45.498;-73.582;2024-01-10T05:38:38;6.68;;;1.60;;
79005;SDS011;69202;45.498;-73.582;2024-01-10T05:41:05;8.27;;;1.80;;
79005;SDS011;69202;45.498;-73.582;2024-01-10T05:43:31;7.68;;;1.90;;
79005;SDS011;69202;45.498;-73.582;2024-01-10T05:45:57;10.18;;;2.20;;
79005;SDS011;69202;45.498;-73.582;2024-01-10T05:48:24;4.97;;;1.60;;
79005;SDS011;69202;45.498;-73.582;2024-01-10T05:50:50;5.75;;;1.60;;
79005;SDS011;69202;45.498;-73.582;2024-01-10T05:53:16;7.68;;;1.70;;
79005;SDS011;69202;45.498;-73.582;2024-01-10T05:55:45;2.42;;;1.40;;
79005;SDS011;69202;45.498;-73.582;2024-01-10T05:58:11;4.45;;;1.95;;
79005;SDS011;69202;45.498;-73.582;2024-01-10T06:00:37;3.70;;;1.50;;
79005;SDS011;69202;45.498;-73.582;2024-01-10T06:03:03;4.68;;;1.45;;
79005;SDS011;69202;45.498;-73.582;2024-01-10T06:05:29;3.92;;;1.52;;
79005;SDS011;69202;45.498;-73.582;2024-01-10T06:07:56;4.22;;;1.48;;
79005;SDS011;69202;45.498;-73.582;2024-01-10T06:10:23;4.40;;;1.60;;
79005;SDS011;69202;45.498;-73.582;2024-01-10T06:12:49;4.00;;;1.35;;
79005;SDS011;69202;45.498;-73.582;2024-01-10T06:15:15;5.20;;;1.70;;
79005;SDS011;69202;45.498;-73.582;2024-01-10T06:17:41;4.50;;;1.50;;
79005;SDS011;69202;45.498;-73.582;2024-01-10T06:20:08;4.70;;;1.30;;
79005;SDS011;69202;45.498;-73.582;2024-01-10T06:22:35;3.55;;;1.30;;
79005;SDS011;69202;45.498;-73.582;2024-01-10T06:25:01;7.25;;;1.85;;
79005;SDS011;69202;45.498;-73.582;2024-01-10T06:27:27;2.85;;;1.80;;
79005;SDS011;69202;45.498;-73.582;2024-01-10T06:29:53;3.20;;;1.33;;
79005;SDS011;69202;45.498;-73.582;2024-01-10T06:32:19;2.40;;;1.20;;
79005;SDS011;69202;45.498;-73.582;2024-01-10T06:34:45;3.55;;;1.30;;
79005;SDS011;69202;45.498;-73.582;2024-01-10T06:37:11;2.30;;;1.00;;
79005;SDS011;69202;45.498;-73.582;2024-01-10T06:39:37;3.78;;;1.10;;
79005;SDS011;69202;45.498;-73.582;2024-01-10T06:42:03;2.03;;;1.33;;
79005;SDS011;69202;45.498;-73.582;2024-01-10T06:44:31;2.42;;;1.00;;
79005;SDS011;69202;45.498;-73.582;2024-01-10T06:46:57;4.72;;;1.25;;
79005;SDS011;69202;45.498;-73.582;2024-01-10T06:49:23;1.30;;;1.00;;
79005;SDS011;69202;45.498;-73.582;2024-01-10T06:51:49;1.08;;;0.90;;
79005;SDS011;69202;45.498;-73.582;2024-01-10T06:54:15;3.70;;;1.20;;
79005;SDS011;69202;45.498;-73.582;2024-01-10T06:56:43;2.65;;;1.20;;
79005;SDS011;69202;45.498;-73.582;2024-01-10T06:59:09;3.05;;;0.90;;
79005;SDS011;69202;45.498;-73.582;2024-01-10T07:01:35;2.35;;;0.80;;
79005;SDS011;69202;45.498;-73.582;2024-01-10T07:04:01;3.58;;;1.10;;
79005;SDS011;69202;45.498;-73.582;2024-01-10T07:06:27;3.28;;;1.15;;
79005;SDS011;69202;45.498;-73.582;2024-01-10T07:08:52;2.53;;;1.00;;
79005;SDS011;69202;45.498;-73.582;2024-01-10T07:11:19;3.53;;;1.10;;
79005;SDS011;69202;45.498;-73.582;2024-01-10T07:13:45;3.15;;;1.20;;
79005;SDS011;69202;45.498;-73.582;2024-01-10T07:16:11;3.45;;;1.10;;
79005;SDS011;69202;45.498;-73.582;2024-01-10T07:18:40;3.53;;;0.90;;
79005;SDS011;69202;45.498;-73.582;2024-01-10T07:21:06;1.27;;;1.00;;
79005;SDS011;69202;45.498;-73.582;2024-01-10T07:23:34;3.15;;;1.10;;
79005;SDS011;69202;45.498;-73.582;2024-01-10T07:26:00;2.60;;;0.90;;
79005;SDS011;69202;45.498;-73.582;2024-01-10T07:28:26;2.67;;;0.90;;
79005;SDS011;69202;45.498;-73.582;2024-01-10T07:30:52;3.00;;;0.80;;
79005;SDS011;69202;45.498;-73.582;2024-01-10T07:33:18;1.45;;;0.90;;
79005;SDS011;69202;45.498;-73.582;2024-01-10T07:35:45;1.50;;;0.90;;
79005;SDS011;69202;45.498;-73.582;2024-01-10T07:38:11;1.52;;;1.00;;
79005;SDS011;69202;45.498;-73.582;2024-01-10T07:40:37;1.73;;;0.90;;
79005;SDS011;69202;45.498;-73.582;2024-01-10T07:43:03;1.88;;;0.98;;
79005;SDS011;69202;45.498;-73.582;2024-01-10T07:45:29;1.73;;;0.90;;
79005;SDS011;69202;45.498;-73.582;2024-01-10T07:47:55;1.92;;;1.08;;
79005;SDS011;69202;45.498;-73.582;2024-01-10T07:50:21;3.15;;;1.02;;
79005;SDS011;69202;45.498;-73.582;2024-01-10T07:52:52;2.92;;;1.20;;
79005;SDS011;69202;45.498;-73.582;2024-01-10T07:55:18;1.10;;;0.90;;
79005;SDS011;69202;45.498;-73.582;2024-01-10T07:57:43;1.42;;;1.00;;
79005;SDS011;69202;45.498;-73.582;2024-01-10T08:00:09;1.35;;;0.85;;
79005;SDS011;69202;45.498;-73.582;2024-01-10T08:02:36;2.53;;;0.80;;
79005;SDS011;69202;45.498;-73.582;2024-01-10T08:05:05;2.05;;;0.88;;
79005;SDS011;69202;45.498;-73.582;2024-01-10T08:07:38;0.90;;;0.80;;
79005;SDS011;69202;45.498;-73.582;2024-01-10T08:10:04;1.27;;;0.90;;
79005;SDS011;69202;45.498;-73.582;2024-01-10T08:12:31;0.75;;;0.60;;
79005;SDS011;69202;45.498;-73.582;2024-01-10T08:14:57;1.33;;;0.77;;
79005;SDS011;69202;45.498;-73.582;2024-01-10T08:17:24;1.77;;;0.80;;
79005;SDS011;69202;45.498;-73.582;2024-01-10T08:19:51;1.63;;;0.85;;
79005;SDS011;69202;45.498;-73.582;2024-01-10T08:22:20;0.90;;;0.80;;
79005;SDS011;69202;45.498;-73.582;2024-01-10T08:24:48;1.42;;;0.70;;
79005;SDS011;69202;45.498;-73.582;2024-01-10T08:27:14;2.20;;;0.85;;
79005;SDS011;69202;45.498;-73.582;2024-01-10T08:29:42;1.88;;;0.70;;
79005;SDS011;69202;45.498;-73.582;2024-01-10T08:32:10;2.05;;;0.68;;
79005;SDS011;69202;45.498;-73.582;2024-01-10T08:34:36;2.63;;;0.90;;
79005;SDS011;69202;45.498;-73.582;2024-01-10T08:37:02;0.80;;;0.70;;
79005;SDS011;69202;45.498;-73.582;2024-01-10T08:39:28;0.80;;;0.70;;
79005;SDS011;69202;45.498;-73.582;2024-01-10T08:41:56;1.38;;;0.65;;
79005;SDS011;69202;45.498;-73.582;2024-01-10T08:44:22;1.35;;;0.77;;
79005;SDS011;69202;45.498;-73.582;2024-01-10T08:46:49;2.47;;;0.75;;
79005;SDS011;69202;45.498;-73.582;2024-01-10T08:49:16;3.90;;;0.75;;
79005;SDS011;69202;45.498;-73.582;2024-01-10T08:51:43;1.00;;;0.60;;
79005;SDS011;69202;45.498;-73.582;2024-01-10T08:54:09;4.25;;;0.70;;
79005;SDS011;69202;45.498;-73.582;2024-01-10T08:56:38;1.42;;;0.60;;
79005;SDS011;69202;45.498;-73.582;2024-01-10T08:59:03;1.08;;;0.47;;
79005;SDS011;69202;45.498;-73.582;2024-01-10T09:01:29;0.88;;;0.70;;
79005;SDS011;69202;45.498;-73.582;2024-01-10T09:03:55;1.33;;;0.70;;
79005;SDS011;69202;45.498;-73.582;2024-01-10T09:06:21;1.02;;;0.70;;
79005;SDS011;69202;45.498;-73.582;2024-01-10T09:08:48;0.98;;;0.80;;
79005;SDS011;69202;45.498;-73.582;2024-01-10T09:11:14;1.77;;;0.60;;
79005;SDS011;69202;45.498;-73.582;2024-01-10T09:13:40;8.55;;;1.02;;
79005;SDS011;69202;45.498;-73.582;2024-01-10T09:16:06;2.03;;;0.60;;
79005;SDS011;69202;45.498;-73.582;2024-01-10T09:18:32;4.07;;;1.00;;
79005;SDS011;69202;45.498;-73.582;2024-01-10T09:20:58;1.60;;;0.85;;
79005;SDS011;69202;45.498;-73.582;2024-01-10T09:23:24;3.15;;;0.80;;
79005;SDS011;69202;45.498;-73.582;2024-01-10T09:25:50;1.45;;;0.73;;
79005;SDS011;69202;45.498;-73.582;2024-01-10T09:28:16;3.95;;;0.90;;
79005;SDS011;69202;45.498;-73.582;2024-01-10T09:30:42;1.98;;;0.90;;
79005;SDS011;69202;45.498;-73.582;2024-01-10T09:33:08;0.80;;;0.70;;
79005;SDS011;69202;45.498;-73.582;2024-01-10T09:35:33;1.02;;;0.65;;
79005;SDS011;69202;45.498;-73.582;2024-01-10T09:37:59;1.65;;;0.60;;
79005;SDS011;69202;45.498;-73.582;2024-01-10T09:40:25;1.33;;;0.60;;
79005;SDS011;69202;45.498;-73.582;2024-01-10T09:42:53;1.45;;;0.80;;
79005;SDS011;69202;45.498;-73.582;2024-01-10T09:45:20;2.42;;;0.70;;
79005;SDS011;69202;45.498;-73.582;2024-01-10T09:47:55;2.47;;;0.77;;
79005;SDS011;69202;45.498;-73.582;2024-01-10T09:50:22;1.05;;;0.70;;
79005;SDS011;69202;45.498;-73.582;2024-01-10T09:52:52;2.25;;;0.90;;
79005;SDS011;69202;45.498;-73.582;2024-01-10T09:55:20;5.18;;;0.73;;
79005;SDS011;69202;45.498;-73.582;2024-01-10T09:57:47;2.25;;;0.80;;
79005;SDS011;69202;45.498;-73.582;2024-01-10T10:00:14;1.48;;;0.77;;
79005;SDS011;69202;45.498;-73.582;2024-01-10T10:02:41;5.35;;;0.95;;
79005;SDS011;69202;45.498;-73.582;2024-01-10T10:05:08;3.05;;;0.70;;
79005;SDS011;69202;45.498;-73.582;2024-01-10T10:07:52;7.28;;;0.68;;
79005;SDS011;69202;45.498;-73.582;2024-01-10T10:10:18;3.15;;;0.85;;
79005;SDS011;69202;45.498;-73.582;2024-01-10T10:12:45;21.58;;;1.45;;
79005;SDS011;69202;45.498;-73.582;2024-01-10T10:15:16;5.57;;;1.10;;
79005;SDS011;69202;45.498;-73.582;2024-01-10T10:17:46;6.68;;;1.10;;
79005;SDS011;69202;45.498;-73.582;2024-01-10T10:20:25;11.57;;;1.70;;
79005;SDS011;69202;45.498;-73.582;2024-01-10T10:23:02;6.03;;;0.95;;
79005;SDS011;69202;45.498;-73.582;2024-01-10T10:25:29;6.82;;;1.17;;
79005;SDS011;69202;45.498;-73.582;2024-01-10T10:27:57;3.38;;;0.95;;
79005;SDS011;69202;45.498;-73.582;2024-01-10T10:30:23;10.35;;;1.10;;
79005;SDS011;69202;45.498;-73.582;2024-01-10T10:32:49;3.35;;;0.82;;
79005;SDS011;69202;45.498;-73.582;2024-01-10T10:35:15;7.68;;;1.25;;
79005;SDS011;69202;45.498;-73.582;2024-01-10T10:37:43;8.50;;;1.30;;
79005;SDS011;69202;45.498;-73.582;2024-01-10T10:40:09;3.30;;;0.80;;
79005;SDS011;69202;45.498;-73.582;2024-01-10T10:42:37;9.02;;;1.35;;
79005;SDS011;69202;45.498;-73.582;2024-01-10T10:45:09;3.78;;;0.85;;
79005;SDS011;69202;45.498;-73.582;2024-01-10T10:47:37;4.50;;;1.25;;
79005;SDS011;69202;45.498;-73.582;2024-01-10T10:50:10;6.70;;;1.05;;
79005;SDS011;69202;45.498;-73.582;2024-01-10T10:52:42;3.50;;;1.00;;
79005;SDS011;69202;45.498;-73.582;2024-01-10T10:55:13;2.58;;;0.80;;
79005;SDS011;69202;45.498;-73.582;2024-01-10T10:57:47;4.97;;;0.90;;
79005;SDS011;69202;45.498;-73.582;2024-01-10T11:00:18;6.20;;;1.13;;
79005;SDS011;69202;45.498;-73.582;2024-01-10T11:02:45;4.93;;;1.27;;
79005;SDS011;69202;45.498;-73.582;2024-01-10T11:05:12;6.75;;;1.00;;
79005;SDS011;69202;45.498;-73.582;2024-01-10T11:07:41;8.50;;;1.38;;
79005;SDS011;69202;45.498;-73.582;2024-01-10T11:10:17;3.90;;;1.20;;
79005;SDS011;69202;45.498;-73.582;2024-01-10T11:18:50;3.35;;;1.17;;
79005;SDS011;69202;45.498;-73.582;2024-01-10T11:24:22;5.95;;;1.27;;
79005;SDS011;69202;45.498;-73.582;2024-01-10T11:26:50;3.75;;;1.05;;
79005;SDS011;69202;45.498;-73.582;2024-01-10T11:29:16;7.97;;;1.30;;
79005;SDS011;69202;45.498;-73.582;2024-01-10T11:31:43;7.13;;;1.50;;
79005;SDS011;69202;45.498;-73.582;2024-01-10T11:34:22;9.55;;;1.13;;
79005;SDS011;69202;45.498;-73.582;2024-01-10T11:37:24;6.72;;;1.30;;
79005;SDS011;69202;45.498;-73.582;2024-01-10T11:39:43;26.40;;;2.83;;
79005;SDS011;69202;45.498;-73.582;2024-01-10T11:42:10;16.23;;;2.03;;
79005;SDS011;69202;45.498;-73.582;2024-01-10T11:44:48;11.65;;;2.08;;
79005;SDS011;69202;45.498;-73.582;2024-01-10T11:47:15;7.93;;;1.33;;
79005;SDS011;69202;45.498;-73.582;2024-01-10T11:50:04;7.63;;;1.52;;
79005;SDS011;69202;45.498;-73.582;2024-01-10T11:52:33;8.82;;;1.48;;
79005;SDS011;69202;45.498;-73.582;2024-01-10T11:54:59;10.80;;;1.40;;
79005;SDS011;69202;45.498;-73.582;2024-01-10T11:57:27;13.00;;;1.58;;
79005;SDS011;69202;45.498;-73.582;2024-01-10T11:59:54;7.65;;;1.98;;
79005;SDS011;69202;45.498;-73.582;2024-01-10T12:02:22;8.45;;;1.67;;
79005;SDS011;69202;45.498;-73.582;2024-01-10T12:04:50;5.75;;;1.63;;
79005;SDS011;69202;45.498;-73.582;2024-01-10T12:07:16;10.35;;;1.73;;
79005;SDS011;69202;45.498;-73.582;2024-01-10T12:09:43;8.93;;;1.20;;
79005;SDS011;69202;45.498;-73.582;2024-01-10T12:12:10;8.98;;;1.40;;
79005;SDS011;69202;45.498;-73.582;2024-01-10T12:14:42;5.50;;;1.20;;
79005;SDS011;69202;45.498;-73.582;2024-01-10T12:17:14;5.97;;;1.27;;
79005;SDS011;69202;45.498;-73.582;2024-01-10T12:19:40;6.70;;;1.30;;
79005;SDS011;69202;45.498;-73.582;2024-01-10T12:22:10;6.72;;;1.25;;
79005;SDS011;69202;45.498;-73.582;2024-01-10T12:24:42;12.77;;;1.95;;
79005;SDS011;69202;45.498;-73.582;2024-01-10T12:27:11;13.30;;;1.55;;
79005;SDS011;69202;45.498;-73.582;2024-01-10T12:29:37;9.45;;;1.60;;
79005;SDS011;69202;45.498;-73.582;2024-01-10T12:32:03;3.15;;;1.30;;
79005;SDS011;69202;45.498;-73.582;2024-01-10T12:34:29;14.88;;;1.42;;
79005;SDS011;69202;45.498;-73.582;2024-01-10T12:36:55;7.28;;;1.40;;
79005;SDS011;69202;45.498;-73.582;2024-01-10T12:39:22;8.52;;;1.67;;
79005;SDS011;69202;45.498;-73.582;2024-01-10T12:41:49;4.50;;;0.95;;
79005;SDS011;69202;45.498;-73.582;2024-01-10T12:44:15;4.85;;;0.98;;
79005;SDS011;69202;45.498;-73.582;2024-01-10T12:46:50;3.20;;;1.17;;
79005;SDS011;69202;45.498;-73.582;2024-01-10T12:49:17;7.45;;;1.92;;
79005;SDS011;69202;45.498;-73.582;2024-01-10T12:51:44;9.57;;;5.00;;
79005;SDS011;69202;45.498;-73.582;2024-01-10T12:54:12;12.15;;;5.55;;
79005;SDS011;69202;45.498;-73.582;2024-01-10T12:56:37;11.30;;;6.93;;
79005;SDS011;69202;45.498;-73.582;2024-01-10T12:59:03;16.52;;;10.05;;
79005;SDS011;69202;45.498;-73.582;2024-01-10T13:01:29;18.75;;;12.20;;
79005;SDS011;69202;45.498;-73.582;2024-01-10T13:03:55;21.25;;;13.75;;
79005;SDS011;69202;45.498;-73.582;2024-01-10T13:06:21;23.92;;;14.38;;
79005;SDS011;69202;45.498;-73.582;2024-01-10T13:08:50;25.40;;;15.52;;
79005;SDS011;69202;45.498;-73.582;2024-01-10T13:11:16;24.02;;;15.35;;
79005;SDS011;69202;45.498;-73.582;2024-01-10T13:13:42;23.55;;;15.00;;
79005;SDS011;69202;45.498;-73.582;2024-01-10T13:16:08;26.35;;;14.95;;
79005;SDS011;69202;45.498;-73.582;2024-01-10T13:18:38;26.75;;;14.82;;
79005;SDS011;69202;45.498;-73.582;2024-01-10T13:21:04;27.75;;;14.77;;
79005;SDS011;69202;45.498;-73.582;2024-01-10T13:23:30;29.92;;;15.60;;
79005;SDS011;69202;45.498;-73.582;2024-01-10T13:25:56;28.40;;;15.98;;
79005;SDS011;69202;45.498;-73.582;2024-01-10T13:28:22;27.63;;;15.13;;
79005;SDS011;69202;45.498;-73.582;2024-01-10T13:30:48;27.52;;;14.80;;
79005;SDS011;69202;45.498;-73.582;2024-01-10T13:33:16;27.75;;;14.93;;
79005;SDS011;69202;45.498;-73.582;2024-01-10T13:35:42;27.10;;;14.57;;
79005;SDS011;69202;45.498;-73.582;2024-01-10T13:38:09;27.38;;;16.10;;
79005;SDS011;69202;45.498;-73.582;2024-01-10T13:40:35;26.63;;;14.63;;
79005;SDS011;69202;45.498;-73.582;2024-01-10T13:43:01;27.23;;;13.40;;
79005;SDS011;69202;45.498;-73.582;2024-01-10T13:45:28;25.95;;;13.75;;
79005;SDS011;69202;45.498;-73.582;2024-01-10T13:47:55;26.40;;;13.05;;
79005;SDS011;69202;45.498;-73.582;2024-01-10T13:50:21;27.10;;;12.35;;
79005;SDS011;69202;45.498;-73.582;2024-01-10T13:52:47;24.10;;;11.57;;
79005;SDS011;69202;45.498;-73.582;2024-01-10T13:55:13;23.85;;;11.90;;
79005;SDS011;69202;45.498;-73.582;2024-01-10T13:57:39;23.98;;;11.18;;
79005;SDS011;69202;45.498;-73.582;2024-01-10T14:00:05;19.88;;;10.63;;
79005;SDS011;69202;45.498;-73.582;2024-01-10T14:02:40;25.63;;;11.55;;
79005;SDS011;69202;45.498;-73.582;2024-01-10T14:05:07;18.85;;;9.75;;
79005;SDS011;69202;45.498;-73.582;2024-01-10T14:07:35;21.95;;;10.38;;
79005;SDS011;69202;45.498;-73.582;2024-01-10T14:10:01;17.25;;;9.35;;
79005;SDS011;69202;45.498;-73.582;2024-01-10T14:12:28;20.60;;;9.00;;
79005;SDS011;69202;45.498;-73.582;2024-01-10T14:14:54;17.38;;;9.00;;
79005;SDS011;69202;45.498;-73.582;2024-01-10T14:17:21;17.42;;;8.85;;
79005;SDS011;69202;45.498;-73.582;2024-01-10T14:19:47;17.80;;;7.75;;
79005;SDS011;69202;45.498;-73.582;2024-01-10T14:22:16;15.80;;;7.85;;
79005;SDS011;69202;45.498;-73.582;2024-01-10T14:24:42;14.23;;;7.47;;